Time;durP1;ratioP1;P1;durP2;ratioP2;P2;SDS_P1;SDS_P2;PMS_P1;PMS_P2;Temp;Humidity;BMP_temperature;BMP_pressure;BME280_temperature;BME280_humidity;BME280_pressure;Samples;Min_cycle;Max_cycle;Signal;HPM_P1;HPM_P2
2023/03/18 00:01:03;;;;;;;9.70;9.40;;;7.70;99.90;;;;;;5084820;28;20222;-88
2023/03/18 00:03:34;;;;;;;10.07;9.77;;;7.60;99.90;;;;;;5084664;28;20223;-89
2023/03/18 00:06:12;;;;;;;10.10;9.80;;;7.50;99.90;;;;;;5084022;28;20230;-89
2023/03/18 00:08:41;;;;;;;10.27;9.97;;;7.40;99.90;;;;;;5084573;28;20229;-89
2023/03/18 00:14:18;;;;;;;10.27;9.97;;;7.30;99.90;;;;;;5084095;28;20237;-90
2023/03/18 00:16:56;;;;;;;10.30;10.00;;;7.30;99.90;;;;;;5084913;28;20238;-89
2023/03/18 00:19:24;;;;;;;10.03;9.73;;;7.20;99.90;;;;;;5084626;28;20233;-89
2023/03/18 00:22:02;;;;;;;10.17;9.87;;;7.20;99.90;;;;;;5083803;28;20241;-89
2023/03/18 00:24:30;;;;;;;10.10;9.80;;;7.20;99.90;;;;;;5089554;28;20230;-89
2023/03/18 00:27:09;;;;;;;10.23;9.93;;;7.20;99.90;;;;;;5083870;28;20226;-90
2023/03/18 00:29:38;;;;;;;10.23;9.93;;;7.20;99.90;;;;;;5083687;28;20226;-90
2023/03/18 00:32:07;;;;;;;10.13;9.83;;;7.20;99.90;;;;;;5084123;28;20253;-89
2023/03/18 00:34:37;;;;;;;10.20;9.90;;;7.30;99.90;;;;;;5084231;28;20262;-89
2023/03/18 00:37:26;;;;;;;10.30;10.00;;;7.20;99.90;;;;;;5084349;28;20245;-90
2023/03/18 00:39:54;;;;;;;10.13;9.83;;;7.20;99.90;;;;;;5084161;28;20222;-90
2023/03/18 00:42:23;;;;;;;10.10;9.80;;;7.20;99.90;;;;;;5083341;28;20245;-90
2023/03/18 00:44:53;;;;;;;10.20;9.90;;;7.10;99.90;;;;;;5084496;28;20233;-90
2023/03/18 00:47:22;;;;;;;10.23;9.93;;;7.10;99.90;;;;;;5083705;28;20378;-90
2023/03/18 00:49:51;;;;;;;10.40;10.10;;;7.10;99.90;;;;;;5083684;28;20300;-90
2023/03/18 00:52:29;;;;;;;10.20;9.90;;;7.10;99.90;;;;;;5084526;28;20234;-90
2023/03/18 00:54:58;;;;;;;10.20;9.90;;;7.10;99.90;;;;;;5084438;28;20226;-90
2023/03/18 00:57:28;;;;;;;10.00;9.70;;;7.10;99.90;;;;;;5083929;28;20230;-90
2023/03/18 00:59:55;;;;;;;10.20;9.90;;;7.00;99.90;;;;;;5103846;22;20245;-82
2023/03/18 01:02:23;;;;;;;10.30;10.00;;;7.00;99.90;;;;;;5077586;28;20215;-83
2023/03/18 01:07:37;;;;;;;9.97;9.67;;;7.00;99.90;;;;;;5082579;28;20229;-82
2023/03/18 01:10:13;;;;;;;9.90;9.60;;;6.90;99.90;;;;;;5083344;28;20356;-82
2023/03/18 01:12:45;;;;;;;9.97;9.67;;;6.90;99.90;;;;;;5084689;28;20233;-82
2023/03/18 01:15:20;;;;;;;10.00;9.70;;;6.90;99.90;;;;;;5083621;28;21315;-82
2023/03/18 01:17:49;;;;;;;10.10;9.80;;;6.80;99.90;;;;;;5093058;28;20268;-81
2023/03/18 01:20:19;;;;;;;10.33;10.03;;;6.80;99.90;;;;;;5096676;28;20222;-81
2023/03/18 01:22:58;;;;;;;10.40;10.10;;;6.70;99.90;;;;;;5096595;28;20237;-82
2023/03/18 01:25:27;;;;;;;10.20;9.90;;;6.70;99.90;;;;;;5093539;28;20234;-82
2023/03/18 01:27:57;;;;;;;10.27;9.97;;;6.70;99.90;;;;;;5088361;28;20237;-82
2023/03/18 01:30:28;;;;;;;10.50;10.20;;;6.70;99.90;;;;;;5088732;28;20230;-82
2023/03/18 01:32:56;;;;;;;10.53;10.23;;;6.60;99.90;;;;;;5087213;28;20633;-82
2023/03/18 01:35:24;;;;;;;10.60;10.30;;;6.60;99.90;;;;;;5086287;28;20280;-82
2023/03/18 01:38:03;;;;;;;10.67;10.37;;;6.60;99.90;;;;;;5084805;28;20241;-82
2023/03/18 01:40:41;;;;;;;10.47;10.17;;;6.60;99.90;;;;;;5087985;28;20256;-82
2023/03/18 01:43:21;;;;;;;10.40;10.10;;;6.60;99.90;;;;;;5089884;28;20234;-82
2023/03/18 01:45:51;;;;;;;10.40;10.10;;;6.60;99.90;;;;;;5087322;28;20249;-82
2023/03/18 01:48:20;;;;;;;10.30;10.00;;;6.60;99.90;;;;;;5086434;28;20322;-82
2023/03/18 01:50:58;;;;;;;10.43;10.13;;;6.70;99.90;;;;;;5087059;28;20236;-82
2023/03/18 01:53:34;;;;;;;10.30;10.00;;;6.70;99.90;;;;;;5087050;28;20230;-82
2023/03/18 01:56:04;;;;;;;10.13;9.83;;;6.70;99.90;;;;;;5085881;28;20225;-82
2023/03/18 01:58:36;;;;;;;10.20;9.90;;;6.70;99.90;;;;;;5085522;28;20242;-82
2023/03/18 02:01:11;;;;;;;10.60;10.30;;;6.70;99.90;;;;;;5085486;28;20313;-82
2023/03/18 02:03:43;;;;;;;10.70;10.40;;;6.70;99.90;;;;;;5086164;28;20341;-82
2023/03/18 02:06:12;;;;;;;10.50;10.20;;;6.60;99.90;;;;;;5098690;28;20241;-81
2023/03/18 02:08:43;;;;;;;10.60;10.30;;;6.50;99.90;;;;;;5094889;28;20264;-82
2023/03/18 02:11:12;;;;;;;10.60;10.30;;;6.50;99.90;;;;;;5091450;28;20298;-82
2023/03/18 02:13:42;;;;;;;10.60;10.30;;;6.40;99.90;;;;;;5088863;28;20264;-85
2023/03/18 02:16:20;;;;;;;10.70;10.40;;;6.40;99.90;;;;;;5087875;28;20217;-82
2023/03/18 02:18:52;;;;;;;10.40;10.10;;;6.40;99.90;;;;;;5087007;28;20248;-82
2023/03/18 02:21:34;;;;;;;10.70;10.40;;;6.30;99.90;;;;;;5087344;28;20291;-82
2023/03/18 02:24:24;;;;;;;10.90;10.60;;;6.30;99.90;;;;;;5086776;28;20234;-83
2023/03/18 02:27:01;;;;;;;10.57;10.27;;;6.20;99.90;;;;;;5087160;28;20317;-83
2023/03/18 02:29:41;;;;;;;10.83;10.53;;;6.20;99.90;;;;;;5085098;28;20328;-83
2023/03/18 02:32:09;;;;;;;10.70;10.40;;;6.20;99.90;;;;;;5086306;28;20241;-83
2023/03/18 02:34:39;;;;;;;10.83;10.53;;;6.20;99.90;;;;;;5085859;28;20554;-83
2023/03/18 02:37:07;;;;;;;10.70;10.40;;;6.10;99.90;;;;;;5086110;28;20659;-83
2023/03/18 02:39:37;;;;;;;10.70;10.40;;;6.10;99.90;;;;;;5084772;28;20241;-83
2023/03/18 02:42:07;;;;;;;10.67;10.37;;;6.20;99.90;;;;;;5087356;28;20242;-83
2023/03/18 02:44:45;;;;;;;10.67;10.37;;;6.20;99.90;;;;;;5087095;28;20230;-83
2023/03/18 02:47:17;;;;;;;10.57;10.27;;;6.10;99.90;;;;;;5085676;28;20217;-83
2023/03/18 02:49:45;;;;;;;10.70;10.40;;;6.10;99.90;;;;;;5085583;28;20238;-83
2023/03/18 02:52:12;;;;;;;10.57;10.27;;;6.20;99.90;;;;;;5085058;28;20316;-83
2023/03/18 02:54:45;;;;;;;10.60;10.30;;;6.20;99.90;;;;;;5085643;28;20233;-83
2023/03/18 02:57:12;;;;;;;10.50;10.20;;;6.20;99.90;;;;;;5084969;28;20230;-83
2023/03/18 02:59:43;;;;;;;10.90;10.60;;;6.20;99.90;;;;;;5084566;28;20265;-83
2023/03/18 03:02:11;;;;;;;10.60;10.30;;;6.20;99.90;;;;;;5085717;28;20261;-83
2023/03/18 03:04:40;;;;;;;10.50;10.20;;;6.20;99.90;;;;;;5084451;28;20242;-83
2023/03/18 03:07:11;;;;;;;10.70;10.40;;;6.20;99.90;;;;;;5084938;28;20221;-82
2023/03/18 03:09:38;;;;;;;10.43;10.13;;;6.10;99.90;;;;;;5083821;28;20369;-83
2023/03/18 03:12:09;;;;;;;10.57;10.27;;;6.10;99.90;;;;;;5084185;28;20226;-83
2023/03/18 03:14:37;;;;;;;10.67;10.37;;;6.00;99.90;;;;;;5084365;28;20263;-82
2023/03/18 03:17:17;;;;;;;10.40;10.10;;;5.90;99.90;;;;;;5084204;28;20230;-82
2023/03/18 03:19:47;;;;;;;10.20;9.90;;;5.90;99.90;;;;;;5083943;28;20334;-83
2023/03/18 03:22:16;;;;;;;10.47;10.17;;;5.90;99.90;;;;;;5084253;28;20230;-82
2023/03/18 03:24:44;;;;;;;10.63;10.33;;;6.00;99.90;;;;;;5084838;28;20225;-82
2023/03/18 03:27:14;;;;;;;10.70;10.40;;;6.00;99.90;;;;;;5083612;28;20233;-83
2023/03/18 03:29:43;;;;;;;10.77;10.47;;;6.00;99.90;;;;;;5083173;28;20230;-83
2023/03/18 03:32:15;;;;;;;10.60;10.30;;;6.00;99.90;;;;;;5083831;28;20258;-83
2023/03/18 03:34:42;;;;;;;10.50;10.20;;;6.00;99.90;;;;;;5083784;28;20257;-83
2023/03/18 03:37:11;;;;;;;10.70;10.40;;;6.00;99.90;;;;;;5083996;28;20305;-83
2023/03/18 03:39:42;;;;;;;10.50;10.20;;;6.00;99.90;;;;;;5082780;28;20329;-83
2023/03/18 03:42:10;;;;;;;10.67;10.37;;;6.00;99.90;;;;;;5084147;28;20222;-82
2023/03/18 03:44:39;;;;;;;10.50;10.20;;;6.00;99.90;;;;;;5083578;28;20262;-82
2023/03/18 03:47:10;;;;;;;10.57;10.27;;;5.90;99.90;;;;;;5083107;28;20226;-82
2023/03/18 03:49:41;;;;;;;10.73;10.43;;;5.80;99.90;;;;;;5083754;28;20249;-82
2023/03/18 03:52:09;;;;;;;10.50;10.20;;;5.80;99.90;;;;;;5083468;28;20325;-83
2023/03/18 03:54:40;;;;;;;10.70;10.40;;;5.80;99.90;;;;;;5083093;28;20237;-83
2023/03/18 03:57:07;;;;;;;10.50;10.20;;;5.80;99.90;;;;;;5083355;28;20231;-82
2023/03/18 03:59:37;;;;;;;10.50;10.20;;;5.80;99.90;;;;;;5081747;28;20265;-83
2023/03/18 04:02:04;;;;;;;10.50;10.20;;;5.80;99.90;;;;;;5082560;28;20373;-84
2023/03/18 04:04:38;;;;;;;10.27;9.97;;;5.90;99.90;;;;;;5082464;28;20322;-83
2023/03/18 04:07:09;;;;;;;10.30;10.00;;;5.90;99.90;;;;;;5083410;28;20226;-83
2023/03/18 04:09:37;;;;;;;10.40;10.10;;;5.90;99.90;;;;;;5082676;28;20265;-83
2023/03/18 04:12:05;;;;;;;10.30;10.00;;;5.90;99.90;;;;;;5084477;28;20238;-82
2023/03/18 04:14:35;;;;;;;10.67;10.37;;;5.90;99.90;;;;;;5089147;28;20226;-82
2023/03/18 04:17:04;;;;;;;10.50;10.20;;;5.90;99.90;;;;;;5086662;28;20285;-82
2023/03/18 04:19:33;;;;;;;10.60;10.30;;;5.90;99.90;;;;;;5084767;28;20234;-83
2023/03/18 04:22:03;;;;;;;10.60;10.30;;;5.90;99.90;;;;;;5082837;28;20234;-83
2023/03/18 04:24:41;;;;;;;10.53;10.23;;;5.90;99.90;;;;;;5087920;28;20226;-82
2023/03/18 04:27:11;;;;;;;10.70;10.40;;;6.00;99.90;;;;;;5092860;28;20225;-82
2023/03/18 04:29:40;;;;;;;10.47;10.17;;;6.00;99.90;;;;;;5091753;28;20230;-82
2023/03/18 04:32:09;;;;;;;10.50;10.20;;;5.90;99.90;;;;;;5090946;28;20238;-82
2023/03/18 04:34:37;;;;;;;10.40;10.10;;;5.90;99.90;;;;;;5087731;28;20261;-82
2023/03/18 04:37:09;;;;;;;10.53;10.23;;;5.90;99.90;;;;;;5087311;28;20285;-84
2023/03/18 04:39:40;;;;;;;10.50;10.20;;;5.90;99.90;;;;;;5085151;28;20252;-82
2023/03/18 04:42:08;;;;;;;10.40;10.10;;;5.80;99.90;;;;;;5085208;28;20238;-84
2023/03/18 04:44:37;;;;;;;10.37;10.07;;;5.80;99.90;;;;;;5084270;28;20240;-82
2023/03/18 04:47:06;;;;;;;10.40;10.10;;;5.80;99.90;;;;;;5084835;28;20248;-82
2023/03/18 04:49:36;;;;;;;10.60;10.30;;;5.80;99.90;;;;;;5083257;28;20241;-82
2023/03/18 04:52:06;;;;;;;10.60;10.30;;;5.80;99.90;;;;;;5083802;28;20284;-80
2023/03/18 04:54:36;;;;;;;10.80;10.50;;;5.80;99.90;;;;;;5084072;28;20233;-82
2023/03/18 04:57:06;;;;;;;10.50;10.20;;;5.70;99.90;;;;;;5084510;28;20225;-82
2023/03/18 04:59:36;;;;;;;10.70;10.40;;;5.70;99.90;;;;;;5082883;28;20238;-81
2023/03/18 05:02:04;;;;;;;10.60;10.30;;;5.70;99.90;;;;;;5088051;28;20230;-82
2023/03/18 05:04:32;;;;;;;10.50;10.20;;;5.70;99.90;;;;;;5089483;28;20230;-82
2023/03/18 05:07:01;;;;;;;10.30;10.00;;;5.70;99.90;;;;;;5087432;28;20272;-82
2023/03/18 05:09:33;;;;;;;10.60;10.30;;;5.70;99.90;;;;;;5086198;28;20226;-82
2023/03/18 05:12:00;;;;;;;10.60;10.30;;;5.70;99.90;;;;;;5084565;28;20264;-84
2023/03/18 05:14:38;;;;;;;10.90;10.60;;;5.70;99.90;;;;;;5082364;28;20218;-82
2023/03/18 05:17:14;;;;;;;10.93;10.63;;;5.70;99.90;;;;;;5082077;28;20321;-84
2023/03/18 05:19:47;;;;;;;10.90;10.60;;;5.60;99.90;;;;;;5082215;28;20249;-83
2023/03/18 05:22:16;;;;;;;10.83;10.53;;;5.60;99.90;;;;;;5082682;28;20234;-82
2023/03/18 05:24:46;;;;;;;10.80;10.50;;;5.60;99.90;;;;;;5089002;28;20226;-82
2023/03/18 05:27:15;;;;;;;10.73;10.43;;;5.60;99.90;;;;;;5090173;28;20222;-83
2023/03/18 05:29:54;;;;;;;10.80;10.50;;;5.60;99.90;;;;;;5089957;28;20265;-83
2023/03/18 05:32:22;;;;;;;10.60;10.30;;;5.60;99.90;;;;;;5090294;28;20280;-83
2023/03/18 05:34:51;;;;;;;10.70;10.40;;;5.60;99.90;;;;;;5088380;28;20303;-82
2023/03/18 05:37:22;;;;;;;10.60;10.30;;;5.60;99.90;;;;;;5087620;28;20711;-82
2023/03/18 05:39:51;;;;;;;10.70;10.40;;;5.60;99.90;;;;;;5086895;28;20238;-82
2023/03/18 05:42:20;;;;;;;10.43;10.13;;;5.60;99.90;;;;;;5086235;28;20257;-83
2023/03/18 05:44:53;;;;;;;10.53;10.23;;;5.60;99.90;;;;;;5085545;28;20230;-82
2023/03/18 05:47:20;;;;;;;10.37;10.07;;;5.60;99.90;;;;;;5085276;28;20321;-83
2023/03/18 05:49:48;;;;;;;10.47;10.17;;;5.60;99.90;;;;;;5084440;28;20241;-82
2023/03/18 05:52:18;;;;;;;10.70;10.40;;;5.50;99.90;;;;;;5085032;28;20233;-82
2023/03/18 05:54:48;;;;;;;10.60;10.30;;;5.50;99.90;;;;;;5083604;28;20248;-83
2023/03/18 05:57:17;;;;;;;10.53;10.23;;;5.60;99.90;;;;;;5083738;28;20234;-83
2023/03/18 05:59:48;;;;;;;10.67;10.37;;;5.60;99.90;;;;;;5084972;28;20309;-84
2023/03/18 06:02:16;;;;;;;10.60;10.30;;;5.70;99.90;;;;;;5086218;28;20301;-82
2023/03/18 06:04:44;;;;;;;10.80;10.50;;;5.70;99.90;;;;;;5084752;28;20230;-83
2023/03/18 06:07:19;;;;;;;10.60;10.30;;;5.80;99.90;;;;;;5084218;28;20231;-83
2023/03/18 06:09:46;;;;;;;10.90;10.60;;;5.80;99.90;;;;;;5084502;28;20244;-83
2023/03/18 06:12:16;;;;;;;10.73;10.43;;;5.90;99.90;;;;;;5083841;28;20265;-82
2023/03/18 06:14:45;;;;;;;10.80;10.50;;;5.90;99.90;;;;;;5083830;28;20227;-83
2023/03/18 06:17:17;;;;;;;10.80;10.50;;;6.00;99.90;;;;;;5083991;28;20222;-84
2023/03/18 06:19:45;;;;;;;10.83;10.53;;;6.00;99.90;;;;;;5085361;28;20245;-83
2023/03/18 06:22:14;;;;;;;10.70;10.40;;;6.00;99.90;;;;;;5084445;28;20692;-83
2023/03/18 06:24:43;;;;;;;10.53;10.23;;;6.00;99.90;;;;;;5084712;28;20304;-83
2023/03/18 06:27:13;;;;;;;10.93;10.63;;;6.00;99.90;;;;;;5085687;28;20239;-83
2023/03/18 06:29:42;;;;;;;10.60;10.30;;;6.00;99.90;;;;;;5087623;28;20238;-83
2023/03/18 06:32:12;;;;;;;10.47;10.17;;;5.90;99.90;;;;;;5086675;28;20233;-83
2023/03/18 06:34:44;;;;;;;10.50;10.20;;;5.90;99.90;;;;;;5087939;28;20269;-83
2023/03/18 06:37:12;;;;;;;10.37;10.07;;;5.90;99.90;;;;;;5087699;28;20246;-82
2023/03/18 06:39:39;;;;;;;10.67;10.37;;;6.00;99.90;;;;;;5087092;28;20238;-83
2023/03/18 06:42:09;;;;;;;10.73;10.43;;;6.00;99.90;;;;;;5088184;28;20576;-83
2023/03/18 06:44:40;;;;;;;10.50;10.20;;;6.10;99.90;;;;;;5096711;28;20282;-83
2023/03/18 06:47:08;;;;;;;10.10;9.80;;;6.20;99.90;;;;;;5095926;28;20237;-83
2023/03/18 06:49:37;;;;;;;10.70;10.40;;;6.20;99.90;;;;;;5092384;28;20246;-82
2023/03/18 06:52:16;;;;;;;10.20;9.90;;;6.30;99.90;;;;;;5089938;28;20309;-82
2023/03/18 06:54:45;;;;;;;10.10;9.80;;;6.40;99.90;;;;;;5095509;28;20915;-81
2023/03/18 06:57:14;;;;;;;10.30;10.00;;;6.40;99.90;;;;;;5096042;28;20325;-79
2023/03/18 07:02:31;;;;;;;10.20;9.90;;;6.60;99.90;;;;;;5060755;28;20254;-86
2023/03/18 07:09:26;;;;;;;10.50;10.20;;;6.70;99.90;;;;;;5069284;28;20199;-84
2023/03/18 07:12:37;;;;;;;10.40;10.10;;;6.70;99.90;;;;;;4997242;28;20208;-84
2023/03/18 07:50:11;;;;;;;10.40;10.10;;;7.20;99.90;;;;;;4824177;29;20268;-84
2023/03/18 07:52:38;;;;;;;10.17;9.87;;;7.30;99.90;;;;;;4834554;29;20271;-86
2023/03/18 07:55:08;;;;;;;10.30;10.00;;;7.50;99.90;;;;;;5035153;28;20266;-86
2023/03/18 09:26:12;;;;;;;;;;;;;;;;;;;;;
2023/03/18 10:54:06;;;;;;;10.60;10.30;;;20.20;99.90;;;;;;5061723;28;20230;-88
2023/03/18 10:59:21;;;;;;;10.23;9.93;;;20.90;99.90;;;;;;5063748;28;20234;-89
2023/03/18 11:16:11;;;;;;;10.63;10.32;;;21.70;99.90;;;;;;4963445;28;20244;-84
2023/03/18 12:18:05;;;;;;;10.90;10.60;;;23.10;99.90;;;;;;4930314;29;20306;-86
2023/03/18 12:49:16;;;;;;;10.45;10.15;;;22.70;99.90;;;;;;4995428;28;20235;-86
2023/03/18 12:53:15;;;;;;;10.43;10.13;;;22.70;99.90;;;;;;4976839;28;20224;-86
2023/03/18 12:59:39;;;;;;;10.30;10.00;;;23.40;99.90;;;;;;4889462;22;20234;-83
2023/03/18 13:02:42;;;;;;;10.60;10.30;;;23.30;99.90;;;;;;5062382;28;20252;-81
2023/03/18 13:05:26;;;;;;;10.60;10.30;;;23.20;99.90;;;;;;5061644;28;20218;-81
2023/03/18 13:08:22;;;;;;;10.80;10.50;;;23.20;99.90;;;;;;5061414;28;20298;-81
2023/03/18 13:11:03;;;;;;;10.52;10.23;;;23.10;99.90;;;;;;5062275;28;20298;-81
2023/03/18 13:13:37;;;;;;;10.98;10.68;;;23.10;99.90;;;;;;5061617;28;20234;-81
2023/03/18 13:16:09;;;;;;;11.15;10.85;;;23.60;99.90;;;;;;5061918;28;20215;-81
2023/03/18 13:18:42;;;;;;;11.00;10.70;;;24.30;99.90;;;;;;5062816;28;20273;-82
2023/03/18 13:21:16;;;;;;;11.00;10.70;;;24.90;99.90;;;;;;5063273;28;20242;-81
2023/03/18 13:24:25;;;;;;;10.68;10.38;;;25.20;99.90;;;;;;5061974;28;20234;-82
2023/03/18 13:27:26;;;;;;;10.68;10.38;;;25.20;99.90;;;;;;5061800;28;20284;-82
2023/03/18 13:30:04;;;;;;;10.35;10.05;;;25.20;99.90;;;;;;5062128;28;20302;-82
2023/03/18 13:33:11;;;;;;;10.60;10.30;;;24.70;99.90;;;;;;5062441;28;20242;-82
2023/03/18 13:36:20;;;;;;;10.70;10.40;;;24.50;99.90;;;;;;5062294;28;20318;-82
2023/03/18 13:39:29;;;;;;;10.70;10.40;;;24.50;99.90;;;;;;5045635;28;20236;-82
2023/03/18 13:42:22;;;;;;;10.43;10.13;;;24.70;99.90;;;;;;5062343;28;20238;-82
2023/03/18 13:44:59;;;;;;;10.30;10.00;;;24.80;99.90;;;;;;5062722;28;20233;-81
2023/03/18 13:47:33;;;;;;;10.60;10.30;;;24.70;99.90;;;;;;5065864;28;20242;-80
2023/03/18 13:50:08;;;;;;;10.60;10.30;;;24.80;99.90;;;;;;5076109;28;20225;-80
2023/03/18 13:52:42;;;;;;;10.60;10.30;;;25.00;99.90;;;;;;5067015;28;20230;-81
2023/03/18 13:55:28;;;;;;;10.30;10.00;;;25.30;99.90;;;;;;5064573;28;20238;-81
2023/03/18 13:57:58;;;;;;;10.52;10.23;;;25.10;99.90;;;;;;5063492;28;20258;-81
2023/03/18 14:00:32;;;;;;;10.70;10.40;;;25.00;99.90;;;;;;5063342;28;20299;-80
2023/03/18 14:03:20;;;;;;;10.70;10.40;;;25.10;99.90;;;;;;5063748;28;20284;-81
2023/03/18 14:05:52;;;;;;;10.80;10.50;;;25.00;99.90;;;;;;5062801;28;20222;-81
2023/03/18 14:08:47;;;;;;;10.50;10.20;;;25.00;99.90;;;;;;5063145;28;20331;-81
2023/03/18 14:11:48;;;;;;;10.85;10.55;;;25.50;99.90;;;;;;5062942;28;20227;-81
2023/03/18 14:14:55;;;;;;;10.70;10.40;;;25.30;99.90;;;;;;5064999;28;20269;-80
2023/03/18 14:17:32;;;;;;;10.52;10.23;;;24.80;99.90;;;;;;5056311;28;20262;-81
2023/03/18 14:20:23;;;;;;;10.68;10.38;;;24.30;99.90;;;;;;5064223;28;20273;-81
2023/03/18 14:22:54;;;;;;;10.60;10.30;;;23.90;99.90;;;;;;5067294;28;21013;-81
2023/03/18 14:25:41;;;;;;;10.48;10.18;;;23.10;99.90;;;;;;5066782;28;20230;-81
2023/03/18 14:28:25;;;;;;;10.70;10.40;;;22.90;99.90;;;;;;5064786;28;20298;-81
2023/03/18 14:30:59;;;;;;;10.50;10.20;;;22.70;99.90;;;;;;5063804;28;20322;-81
2023/03/18 14:33:52;;;;;;;10.40;10.10;;;22.50;99.90;;;;;;5063826;28;20221;-81
2023/03/18 14:36:40;;;;;;;10.43;10.13;;;22.50;99.90;;;;;;5066025;28;20250;-81
2023/03/18 14:39:15;;;;;;;10.38;10.07;;;22.40;99.90;;;;;;5063076;28;20231;-81
2023/03/18 14:41:47;;;;;;;10.45;10.15;;;22.20;99.90;;;;;;5063131;28;20245;-82
2023/03/18 14:44:27;;;;;;;10.30;10.00;;;22.10;99.90;;;;;;5063587;28;20292;-82
2023/03/18 14:47:00;;;;;;;10.10;9.80;;;22.20;99.90;;;;;;5063356;28;20260;-82
2023/03/18 14:49:39;;;;;;;10.48;10.18;;;22.00;99.90;;;;;;5066292;28;20253;-81
2023/03/18 14:52:28;;;;;;;10.35;10.05;;;22.20;99.90;;;;;;5066545;28;20231;-82
2023/03/18 14:55:07;;;;;;;10.23;9.93;;;22.30;99.90;;;;;;5067543;28;20314;-81
2023/03/18 14:57:36;;;;;;;10.68;10.38;;;22.40;99.90;;;;;;5067283;28;20234;-81
2023/03/18 15:00:07;;;;;;;10.30;10.00;;;22.40;99.90;;;;;;5066783;28;20249;-81
2023/03/18 15:02:39;;;;;;;10.43;10.13;;;22.10;99.90;;;;;;5069349;28;20281;-81
2023/03/18 15:05:07;;;;;;;10.48;10.18;;;21.90;99.90;;;;;;5071323;28;20321;-82
2023/03/18 15:07:37;;;;;;;10.65;10.35;;;21.80;99.90;;;;;;5071982;28;20234;-82
2023/03/18 15:10:11;;;;;;;10.60;10.30;;;21.70;99.90;;;;;;5080486;28;20231;-80
2023/03/18 15:12:39;;;;;;;10.55;10.25;;;21.50;99.90;;;;;;5081621;28;20203;-81
2023/03/18 15:15:13;;;;;;;10.38;10.07;;;21.30;99.90;;;;;;5081055;28;20246;-80
2023/03/18 15:17:46;;;;;;;10.60;10.30;;;21.20;99.90;;;;;;5080891;28;20218;-80
2023/03/18 15:20:16;;;;;;;10.25;9.95;;;21.10;99.90;;;;;;5080179;28;20231;-81
2023/03/18 15:22:46;;;;;;;10.27;9.98;;;21.20;99.90;;;;;;5080925;28;20227;-80
2023/03/18 15:25:20;;;;;;;10.15;9.85;;;21.30;99.90;;;;;;5080842;28;20245;-81
2023/03/18 15:27:48;;;;;;;10.20;9.90;;;21.40;99.90;;;;;;5079776;28;20250;-80
2023/03/18 15:30:29;;;;;;;10.40;10.10;;;21.70;99.90;;;;;;5080028;28;20286;-82
2023/03/18 15:33:05;;;;;;;10.20;9.90;;;21.90;99.90;;;;;;5080232;28;20214;-80
2023/03/18 15:35:33;;;;;;;10.80;10.50;;;22.00;99.90;;;;;;5080832;28;20211;-81
2023/03/18 15:38:17;;;;;;;10.50;10.20;;;22.20;99.90;;;;;;5080948;28;20214;-80
2023/03/18 15:40:55;;;;;;;10.45;10.15;;;22.20;99.90;;;;;;5080591;28;20215;-81
2023/03/18 15:43:43;;;;;;;10.30;10.00;;;21.70;99.90;;;;;;5080728;28;20210;-81
2023/03/18 15:46:18;;;;;;;10.30;10.00;;;21.30;99.90;;;;;;5077456;28;20215;-82
2023/03/18 15:48:53;;;;;;;10.05;9.75;;;21.20;99.90;;;;;;5067604;28;20249;-82
2023/03/18 15:51:28;;;;;;;10.48;10.18;;;21.10;99.90;;;;;;5067283;28;20234;-82
2023/03/18 15:54:00;;;;;;;10.35;10.05;;;21.10;99.90;;;;;;5066657;28;20265;-82
2023/03/18 15:56:32;;;;;;;10.30;10.00;;;21.10;99.90;;;;;;5067120;28;20219;-82
2023/03/18 15:59:08;;;;;;;10.40;10.10;;;21.10;99.90;;;;;;5069252;28;20242;-82
2023/03/18 16:01:38;;;;;;;10.50;10.20;;;21.10;99.90;;;;;;5068826;28;20269;-82
2023/03/18 16:04:11;;;;;;;10.43;10.13;;;21.20;99.90;;;;;;5071979;28;21108;-81
2023/03/18 16:06:39;;;;;;;10.30;10.00;;;21.40;99.90;;;;;;5073442;28;20227;-81
2023/03/18 16:09:18;;;;;;;10.60;10.30;;;21.50;99.90;;;;;;5072046;28;20692;-84
2023/03/18 16:11:54;;;;;;;10.38;10.07;;;21.40;99.90;;;;;;5074643;28;20241;-82
2023/03/18 16:14:29;;;;;;;10.40;10.10;;;21.20;99.90;;;;;;5073827;28;20237;-82
2023/03/18 16:16:56;;;;;;;10.45;10.15;;;21.00;99.90;;;;;;5069488;28;20215;-81
2023/03/18 16:19:27;;;;;;;10.25;9.95;;;20.70;99.90;;;;;;5068755;28;20246;-82
2023/03/18 16:21:56;;;;;;;10.45;10.15;;;20.50;99.90;;;;;;5067595;28;20235;-81
2023/03/18 16:24:24;;;;;;;10.50;10.20;;;20.40;99.90;;;;;;5067442;28;20223;-81
2023/03/18 16:26:57;;;;;;;10.40;10.10;;;20.20;99.90;;;;;;5069369;28;20328;-84
2023/03/18 16:29:30;;;;;;;10.60;10.30;;;20.10;99.90;;;;;;5070082;28;20227;-80
2023/03/18 16:31:58;;;;;;;10.40;10.10;;;20.00;99.90;;;;;;5069900;28;20230;-81
2023/03/18 16:34:26;;;;;;;10.38;10.07;;;20.00;99.90;;;;;;5069517;28;20325;-81
2023/03/18 16:36:54;;;;;;;10.40;10.10;;;19.90;99.90;;;;;;5067958;28;20284;-81
2023/03/18 16:39:32;;;;;;;10.30;10.00;;;19.80;99.90;;;;;;5065586;28;20290;-81
2023/03/18 16:42:03;;;;;;;10.10;9.80;;;19.70;99.90;;;;;;5065466;28;20293;-82
2023/03/18 16:44:34;;;;;;;10.30;10.00;;;19.60;99.90;;;;;;5066434;28;20223;-82
2023/03/18 16:47:05;;;;;;;10.50;10.20;;;19.50;99.90;;;;;;5066548;28;20290;-81
2023/03/18 16:49:35;;;;;;;10.00;9.70;;;19.50;99.90;;;;;;5066329;28;20238;-81
2023/03/18 16:52:03;;;;;;;10.20;9.90;;;19.40;99.90;;;;;;5067389;28;20293;-81
2023/03/18 16:54:33;;;;;;;10.15;9.85;;;19.30;99.90;;;;;;5067236;28;20286;-81
2023/03/18 16:57:05;;;;;;;10.30;10.00;;;19.30;99.90;;;;;;5067282;28;20218;-81
2023/03/18 16:59:36;;;;;;;10.48;10.18;;;19.20;99.90;;;;;;5066272;28;20243;-81
2023/03/18 17:02:05;;;;;;;10.30;10.00;;;19.10;99.90;;;;;;5067208;28;20277;-82
2023/03/18 17:04:34;;;;;;;10.32;10.02;;;19.10;99.90;;;;;;5068016;28;20227;-83
2023/03/18 17:07:08;;;;;;;10.27;9.98;;;19.00;99.90;;;;;;5059389;28;20280;-82
2023/03/18 17:09:35;;;;;;;10.40;10.10;;;19.00;99.90;;;;;;5073984;28;20242;-82
2023/03/18 17:12:08;;;;;;;10.25;9.95;;;18.90;99.90;;;;;;5065818;28;20231;-81
2023/03/18 17:14:38;;;;;;;10.25;9.95;;;18.80;99.90;;;;;;5066105;28;20237;-80
2023/03/18 17:17:11;;;;;;;10.15;9.85;;;18.70;99.90;;;;;;5071256;28;20266;-79
2023/03/18 17:19:38;;;;;;;10.25;9.95;;;18.60;99.90;;;;;;5071416;28;20229;-81
2023/03/18 17:22:20;;;;;;;10.10;9.80;;;18.40;99.90;;;;;;5076276;28;20242;-79
2023/03/18 17:24:48;;;;;;;10.07;9.77;;;18.30;99.90;;;;;;5084220;28;20277;-80
2023/03/18 17:27:20;;;;;;;10.02;9.73;;;18.30;99.90;;;;;;5077601;28;20289;-81
2023/03/18 17:29:53;;;;;;;10.10;9.80;;;18.10;99.90;;;;;;5062676;28;20231;-80
2023/03/18 17:32:21;;;;;;;9.70;9.40;;;18.10;99.90;;;;;;5063425;28;20234;-79
2023/03/18 17:34:51;;;;;;;9.70;9.40;;;18.00;99.90;;;;;;5063315;28;20270;-79
2023/03/18 17:37:22;;;;;;;9.60;9.30;;;17.90;99.90;;;;;;5062919;28;20242;-79
2023/03/18 17:39:50;;;;;;;9.90;9.60;;;17.80;99.90;;;;;;5062712;28;20443;-82
2023/03/18 17:42:29;;;;;;;9.82;9.52;;;17.70;99.90;;;;;;5061362;28;20419;-82
2023/03/18 17:44:59;;;;;;;9.80;9.50;;;17.60;99.90;;;;;;5061419;28;20241;-82
2023/03/18 17:47:27;;;;;;;9.48;9.18;;;17.50;99.90;;;;;;5061608;28;20298;-81
2023/03/18 17:49:56;;;;;;;9.73;9.43;;;17.40;99.90;;;;;;5081584;28;20298;-81
2023/03/18 17:52:26;;;;;;;9.90;9.60;;;17.30;99.90;;;;;;5081165;28;20234;-81
2023/03/18 17:54:55;;;;;;;9.80;9.50;;;17.30;99.90;;;;;;5081468;28;20228;-81
2023/03/18 17:57:34;;;;;;;9.95;9.65;;;17.20;99.90;;;;;;5071325;28;20233;-81
2023/03/18 18:00:05;;;;;;;9.77;9.48;;;17.20;99.90;;;;;;5061309;28;20238;-82
2023/03/18 18:02:39;;;;;;;9.80;9.50;;;17.20;99.90;;;;;;5062001;28;20294;-82
2023/03/18 18:05:14;;;;;;;9.98;9.68;;;17.10;99.90;;;;;;5062766;28;20336;-82
2023/03/18 18:07:43;;;;;;;9.85;9.55;;;17.10;99.90;;;;;;5063167;28;20226;-82
2023/03/18 18:10:13;;;;;;;9.90;9.60;;;17.00;99.90;;;;;;5070822;28;20243;-82
2023/03/18 18:12:44;;;;;;;9.90;9.60;;;17.00;99.90;;;;;;5063782;28;20235;-81
2023/03/18 18:15:21;;;;;;;9.88;9.57;;;16.90;99.90;;;;;;5062682;28;20325;-82
2023/03/18 18:17:48;;;;;;;9.60;9.30;;;16.90;99.90;;;;;;5062172;28;20222;-82
2023/03/18 18:20:17;;;;;;;9.68;9.38;;;16.80;99.90;;;;;;5062138;28;20231;-81
2023/03/18 18:22:48;;;;;;;9.48;9.18;;;16.80;99.90;;;;;;5062262;28;20243;-81
2023/03/18 18:25:20;;;;;;;9.70;9.40;;;16.70;99.90;;;;;;5064675;28;20239;-81
2023/03/18 18:27:49;;;;;;;9.60;9.30;;;16.60;99.90;;;;;;5064485;28;20242;-80
2023/03/18 18:30:22;;;;;;;9.50;9.20;;;16.60;99.90;;;;;;5066011;28;20238;-80
2023/03/18 18:32:53;;;;;;;9.70;9.40;;;16.50;99.90;;;;;;5075145;28;20326;-81
2023/03/18 18:35:24;;;;;;;9.70;9.40;;;16.40;99.90;;;;;;5071284;28;20223;-83
2023/03/18 18:37:53;;;;;;;9.63;9.32;;;16.40;99.90;;;;;;5065265;28;20234;-81
2023/03/18 18:40:22;;;;;;;9.60;9.30;;;16.30;99.90;;;;;;5064753;28;20352;-82